Time;durP1;ratioP1;P1;durP2;ratioP2;P2;SDS_P1;SDS_P2;PMS_P1;PMS_P2;Temp;Humidity;BMP_temperature;BMP_pressure;BME280_temperature;BME280_humidity;BME280_pressure;Samples;Min_cycle;Max_cycle;Signal;HPM_P1;HPM_P2
2022/06/01 00:00:32;;;;;;;10.95;5.20;;;;;;;14.65;100.00;100243.97;5590438;31;34604;-70
2022/06/01 00:03:42;;;;;;;8.23;5.30;;;;;;;14.67;100.00;100241.91;5590375;31;34062;-70
2022/06/01 00:06:44;;;;;;;9.82;5.32;;;;;;;14.74;100.00;100229.41;5590298;31;34693;-70
2022/06/01 00:09:47;;;;;;;7.97;5.18;;;;;;;14.82;100.00;100228.41;5590611;31;34671;-70
2022/06/01 00:12:50;;;;;;;6.68;5.35;;;;;;;14.94;100.00;100226.84;5590321;31;34313;-70
2022/06/01 00:15:54;;;;;;;12.32;5.57;;;;;;;15.00;100.00;100221.53;5590480;31;33970;-70
2022/06/01 00:18:56;;;;;;;8.73;5.35;;;;;;;14.90;100.00;100210.41;5590576;31;34398;-70
2022/06/01 00:22:11;;;;;;;9.10;5.25;;;;;;;14.83;100.00;100216.72;5590391;31;34850;-70
2022/06/01 00:25:14;;;;;;;7.40;5.30;;;;;;;14.77;100.00;100221.81;5590195;31;33891;-70
2022/06/01 00:28:18;;;;;;;6.65;4.97;;;;;;;14.69;100.00;100221.19;5590094;31;35272;-70
2022/06/01 00:31:20;;;;;;;7.50;5.60;;;;;;;14.58;100.00;100214.53;5589933;31;33986;-71
2022/06/01 00:34:23;;;;;;;9.85;5.47;;;;;;;14.50;100.00;100213.91;5588832;31;32861;-70
2022/06/01 00:37:26;;;;;;;8.70;5.43;;;;;;;14.43;100.00;100213.84;5590136;31;33916;-70
2022/06/01 00:40:30;;;;;;;8.60;5.75;;;;;;;14.40;100.00;100211.56;5590159;31;34454;-70
2022/06/01 00:43:42;;;;;;;7.87;5.60;;;;;;;14.38;100.00;100208.28;5590067;31;34400;-70
2022/06/01 00:46:45;;;;;;;9.85;5.57;;;;;;;14.45;100.00;100206.47;5589309;31;32578;-71
2022/06/01 00:49:54;;;;;;;13.48;5.70;;;;;;;14.42;100.00;100204.22;5589319;31;33307;-70
2022/06/01 00:53:07;;;;;;;9.02;5.12;;;;;;;14.35;100.00;100214.81;5589783;31;34882;-71
2022/06/01 00:56:20;;;;;;;10.27;6.12;;;;;;;14.28;100.00;100207.78;5589906;31;33912;-70
2022/06/01 00:59:28;;;;;;;7.03;4.93;;;;;;;14.25;100.00;100219.66;5589443;31;32316;-70
2022/06/01 01:02:30;;;;;;;8.20;5.00;;;;;;;14.24;100.00;100211.84;5590168;31;33968;-70
2022/06/01 01:05:33;;;;;;;8.15;4.97;;;;;;;14.69;100.00;100215.84;5590140;31;34583;-70
2022/06/01 01:08:37;;;;;;;5.82;4.40;;;;;;;14.67;100.00;100213.34;5590176;31;34672;-70
2022/06/01 01:11:51;;;;;;;6.15;4.57;;;;;;;14.48;100.00;100211.41;5589922;31;34388;-70
2022/06/01 01:14:54;;;;;;;6.03;4.60;;;;;;;14.58;100.00;100209.22;5590075;31;33884;-71
2022/06/01 01:17:58;;;;;;;6.57;4.72;;;;;;;14.70;100.00;100210.31;5589745;31;34208;-70
2022/06/01 01:21:04;;;;;;;7.65;4.75;;;;;;;14.49;100.00;100213.06;5589671;31;34178;-70
2022/06/01 01:24:22;;;;;;;7.55;4.90;;;;;;;14.38;100.00;100216.28;5589562;31;34797;-70
2022/06/01 01:27:25;;;;;;;6.60;5.12;;;;;;;14.28;100.00;100221.94;5588859;31;33962;-71
2022/06/01 01:30:40;;;;;;;9.00;4.62;;;;;;;14.31;100.00;100216.22;5589744;31;33987;-71
2022/06/01 01:33:44;;;;;;;7.53;4.95;;;;;;;14.34;100.00;100210.47;5589325;31;33974;-70
2022/06/01 01:36:53;;;;;;;5.72;4.47;;;;;;;14.16;100.00;100202.16;5589657;31;33889;-70
2022/06/01 01:39:57;;;;;;;6.20;4.47;;;;;;;14.06;100.00;100201.69;5589607;31;33914;-70
2022/06/01 01:43:03;;;;;;;8.23;5.22;;;;;;;13.92;100.00;100207.94;5589778;31;34385;-70
2022/06/01 01:46:06;;;;;;;5.78;4.55;;;;;;;13.87;100.00;100205.84;5589928;31;34579;-70
2022/06/01 01:49:09;;;;;;;8.80;5.50;;;;;;;13.83;100.00;100209.09;5588766;31;32721;-70
2022/06/01 01:52:15;;;;;;;7.70;5.10;;;;;;;13.78;100.00;100207.00;5589717;31;34652;-71
2022/06/01 01:55:42;;;;;;;7.93;5.20;;;;;;;13.78;100.00;100214.19;5589286;31;34515;-71
2022/06/01 01:59:02;;;;;;;9.27;5.50;;;;;;;13.73;100.00;100204.09;5588401;31;33258;-71
2022/06/01 02:02:30;;;;;;;7.30;5.22;;;;;;;13.69;100.00;100199.34;5588321;31;32558;-70
2022/06/01 02:06:05;;;;;;;6.85;4.95;;;;;;;13.67;100.00;100204.03;5589194;31;34056;-71
2022/06/01 02:09:12;;;;;;;8.68;5.30;;;;;;;13.69;100.00;100199.34;5589075;31;33920;-71
2022/06/01 02:15:40;;;;;;;7.05;5.30;;;;;;;13.92;100.00;100200.75;5589198;31;34663;-71
2022/06/01 02:18:48;;;;;;;12.45;6.65;;;;;;;14.11;100.00;100196.59;5588912;31;34620;-71
2022/06/01 02:21:56;;;;;;;10.60;5.70;;;;;;;14.22;100.00;100196.06;5588747;31;34438;-71
2022/06/01 02:24:59;;;;;;;7.00;5.07;;;;;;;14.33;100.00;100186.66;5588939;31;33926;-71
2022/06/01 02:28:01;;;;;;;6.97;5.22;;;;;;;14.37;100.00;100189.81;5587907;31;34826;-71
2022/06/01 02:31:04;;;;;;;6.45;5.28;;;;;;;14.42;100.00;100187.38;5588787;31;34709;-71
2022/06/01 02:34:09;;;;;;;6.37;5.03;;;;;;;14.44;100.00;100187.97;5588485;31;34578;-71
2022/06/01 02:37:14;;;;;;;6.47;4.80;;;;;;;14.48;100.00;100197.22;5588987;31;34468;-71
2022/06/01 02:40:21;;;;;;;8.15;5.18;;;;;;;14.52;100.00;100193.19;5591363;31;33982;-71
2022/06/01 02:43:26;;;;;;;7.85;5.50;;;;;;;14.67;100.00;100188.50;5591127;31;33876;-71
2022/06/01 02:46:30;;;;;;;7.15;5.53;;;;;;;14.70;100.00;100193.47;5590406;31;33886;-71
2022/06/01 02:49:33;;;;;;;8.50;5.45;;;;;;;14.62;100.00;100202.44;5591012;31;33844;-71
2022/06/01 02:52:36;;;;;;;8.88;5.20;;;;;;;14.61;100.00;100192.81;5591042;31;34016;-71
2022/06/01 02:55:39;;;;;;;9.43;5.80;;;;;;;14.65;100.00;100194.06;5591329;31;34009;-71
2022/06/01 02:58:42;;;;;;;6.97;5.43;;;;;;;14.64;100.00;100186.25;5591193;31;34553;-71
2022/06/01 03:01:45;;;;;;;7.03;5.70;;;;;;;14.68;100.00;100177.62;5591426;31;33879;-71
2022/06/01 03:04:47;;;;;;;10.40;5.55;;;;;;;14.69;100.00;100183.78;5590973;31;34005;-71
2022/06/01 03:07:51;;;;;;;8.23;5.65;;;;;;;14.69;100.00;100181.94;5591307;31;34021;-71
2022/06/01 03:10:54;;;;;;;10.75;6.15;;;;;;;14.68;100.00;100176.81;5590896;31;33998;-70
2022/06/01 03:13:57;;;;;;;10.10;5.93;;;;;;;14.86;100.00;100170.94;5590723;31;34701;-71
2022/06/01 03:17:00;;;;;;;11.80;6.30;;;;;;;14.88;100.00;100168.88;5590778;31;33933;-71
2022/06/01 03:20:08;;;;;;;9.63;5.82;;;;;;;14.82;100.00;100172.34;5590759;31;34304;-71
2022/06/01 03:23:11;;;;;;;6.75;5.30;;;;;;;14.82;100.00;100167.00;5590788;31;34693;-71
2022/06/01 03:26:13;;;;;;;7.30;5.62;;;;;;;14.91;100.00;100182.63;5590824;31;34004;-71
2022/06/01 03:29:16;;;;;;;14.18;6.15;;;;;;;14.98;100.00;100177.31;5590808;31;34213;-71
2022/06/01 03:32:19;;;;;;;9.90;6.00;;;;;;;15.05;100.00;100162.97;5590590;31;33991;-71
2022/06/01 03:35:29;;;;;;;11.05;6.62;;;;;;;15.14;100.00;100169.78;5590674;31;34668;-71
2022/06/01 03:38:32;;;;;;;10.40;6.45;;;;;;;15.17;100.00;100188.06;5589559;31;33448;-70
2022/06/01 03:41:35;;;;;;;13.15;6.95;;;;;;;15.27;100.00;100202.87;5590609;31;33729;-71
2022/06/01 03:47:59;;;;;;;7.93;5.43;;;;;;;15.43;100.00;100272.03;5590516;31;34680;-77
2022/06/01 03:51:02;;;;;;;21.15;8.63;;;;;;;14.69;100.00;100296.78;5590468;31;33933;-72
2022/06/01 03:54:06;;;;;;;27.17;9.52;;;;;;;13.98;100.00;100287.19;5589674;31;34125;-71
2022/06/01 03:57:09;;;;;;;20.83;9.90;;;;;;;13.85;100.00;100266.53;5589550;31;35173;-72
2022/06/01 04:00:16;;;;;;;18.85;11.40;;;;;;;14.11;100.00;100265.94;5590631;31;34204;-72
2022/06/01 04:03:19;;;;;;;20.20;10.90;;;;;;;13.98;100.00;100281.84;5590653;31;34206;-72
2022/06/01 04:06:22;;;;;;;20.08;11.30;;;;;;;14.03;100.00;100281.28;5589361;31;32431;-72
2022/06/01 04:09:25;;;;;;;18.20;11.32;;;;;;;14.14;100.00;100276.22;5590264;31;33865;-72
2022/06/01 04:12:28;;;;;;;16.42;10.77;;;;;;;14.13;100.00;100271.94;5590332;31;33932;-72
2022/06/01 04:15:30;;;;;;;20.80;11.40;;;;;;;14.13;100.00;100261.25;5590279;31;34631;-72
2022/06/01 04:18:33;;;;;;;19.45;11.30;;;;;;;14.12;100.00;100250.78;5590090;31;34638;-72
2022/06/01 04:21:37;;;;;;;21.67;11.40;;;;;;;14.11;100.00;100249.94;5590080;31;34081;-72
2022/06/01 04:24:41;;;;;;;21.67;11.70;;;;;;;14.10;100.00;100242.12;5590462;31;33736;-72
2022/06/01 04:27:44;;;;;;;16.62;10.60;;;;;;;14.22;100.00;100251.25;5589926;31;33631;-72
2022/06/01 04:30:47;;;;;;;17.48;11.55;;;;;;;14.37;100.00;100261.88;5590119;31;34875;-72
2022/06/01 04:33:49;;;;;;;17.98;10.57;;;;;;;14.45;100.00;100254.53;5589847;31;34183;-72
2022/06/01 04:36:54;;;;;;;17.77;11.10;;;;;;;14.62;100.00;100269.19;5589291;31;32824;-72
2022/06/01 04:39:57;;;;;;;18.08;11.52;;;;;;;14.70;100.00;100266.38;5589897;31;34286;-71
2022/06/01 04:42:59;;;;;;;19.50;11.30;;;;;;;14.92;100.00;100266.25;5589973;31;34132;-72
2022/06/01 04:46:03;;;;;;;16.10;10.50;;;;;;;15.00;100.00;100271.47;5588796;31;36326;-72
2022/06/01 04:49:07;;;;;;;16.40;10.60;;;;;;;14.95;100.00;100274.72;5588268;31;33305;-71
2022/06/01 04:52:10;;;;;;;17.23;10.32;;;;;;;14.98;100.00;100279.66;5589812;31;34641;-72
2022/06/01 04:55:13;;;;;;;21.12;11.30;;;;;;;15.01;100.00;100263.22;5588831;31;34491;-71
2022/06/01 04:58:16;;;;;;;24.10;12.30;;;;;;;15.11;100.00;100258.34;5589665;31;34913;-71
2022/06/01 05:01:19;;;;;;;19.25;12.55;;;;;;;15.30;100.00;100254.06;5587673;31;33073;-71
2022/06/01 05:04:22;;;;;;;20.23;11.98;;;;;;;15.36;100.00;100255.94;5589659;31;34174;-71
2022/06/01 05:07:24;;;;;;;20.45;12.37;;;;;;;15.42;100.00;100257.81;5589516;31;33922;-71
2022/06/01 05:10:28;;;;;;;26.17;15.38;;;;;;;15.58;100.00;100257.50;5589589;31;33951;-71
2022/06/01 05:13:30;;;;;;;26.05;15.88;;;;;;;15.72;100.00;100254.81;5589918;31;33667;-71
2022/06/01 05:16:33;;;;;;;31.48;17.05;;;;;;;15.95;100.00;100256.06;5589482;31;34963;-72
2022/06/01 05:19:36;;;;;;;29.95;17.02;;;;;;;16.12;100.00;100258.34;5587515;31;33496;-72
2022/06/01 05:22:38;;;;;;;27.73;16.55;;;;;;;16.31;100.00;100263.69;5588631;31;32580;-72
2022/06/01 05:25:42;;;;;;;32.17;17.55;;;;;;;16.44;100.00;100265.50;5589319;31;34319;-72
2022/06/01 05:28:45;;;;;;;31.17;17.98;;;;;;;16.50;100.00;100260.16;5589213;31;34400;-72
2022/06/01 05:31:48;;;;;;;30.92;17.30;;;;;;;16.65;100.00;100264.47;5588439;31;33814;-72
2022/06/01 05:34:51;;;;;;;27.67;16.60;;;;;;;16.81;100.00;100269.38;5588242;31;33987;-73
2022/06/01 05:37:53;;;;;;;25.65;16.17;;;;;;;17.18;100.00;100273.16;5588331;31;32643;-74
2022/06/01 05:40:56;;;;;;;25.55;16.00;;;;;;;17.41;100.00;100286.88;5589161;31;34270;-74
2022/06/01 05:44:02;;;;;;;26.30;16.08;;;;;;;17.52;100.00;100299.59;5589261;31;34291;-74
2022/06/01 05:47:07;;;;;;;25.95;16.37;;;;;;;17.41;100.00;100307.50;5588104;31;34456;-73
2022/06/01 05:50:10;;;;;;;25.55;16.17;;;;;;;17.25;100.00;100295.38;5589136;31;34895;-74
2022/06/01 05:53:15;;;;;;;29.25;17.50;;;;;;;17.26;100.00;100303.22;5588760;31;34310;-74
2022/06/01 05:56:20;;;;;;;28.52;16.67;;;;;;;17.18;100.00;100300.78;5588644;31;34257;-73
2022/06/01 05:59:23;;;;;;;28.05;16.02;;;;;;;17.26;100.00;100305.91;5588487;31;34925;-73
2022/06/01 06:02:27;;;;;;;24.87;16.27;;;;;;;17.30;100.00;100312.47;5589229;31;34609;-73
2022/06/01 06:09:09;;;;;;;22.45;14.50;;;;;;;17.17;100.00;100309.88;5588817;31;34905;-76
2022/06/01 06:12:12;;;;;;;26.50;14.87;;;;;;;16.91;100.00;100307.25;5588542;31;34972;-73
2022/06/01 06:15:16;;;;;;;21.87;14.25;;;;;;;16.88;100.00;100307.69;5588066;31;34800;-71
2022/06/01 06:18:18;;;;;;;21.77;13.23;;;;;;;16.81;100.00;100310.38;5574294;31;33828;-73
2022/06/01 06:21:22;;;;;;;19.27;11.75;;;;;;;16.78;100.00;100321.53;5588331;31;34931;-72
2022/06/01 06:24:25;;;;;;;19.98;11.73;;;;;;;16.62;100.00;100327.31;5587915;31;34104;-72
2022/06/01 06:27:27;;;;;;;16.00;9.98;;;;;;;16.59;100.00;100324.25;5587962;31;34559;-72
2022/06/01 06:30:32;;;;;;;15.55;9.55;;;;;;;16.62;100.00;100318.44;5588554;31;34217;-72
2022/06/01 06:33:35;;;;;;;14.02;9.93;;;;;;;16.71;100.00;100315.34;5588200;31;34855;-71
2022/06/01 06:36:38;;;;;;;14.80;9.15;;;;;;;16.95;100.00;100316.53;5588544;31;34533;-72
2022/06/01 06:39:40;;;;;;;15.18;9.35;;;;;;;17.16;100.00;100326.97;5587281;31;34419;-71
2022/06/01 06:42:43;;;;;;;14.50;10.27;;;;;;;17.31;100.00;100329.41;5588271;31;34798;-72
2022/06/01 06:45:51;;;;;;;18.17;11.95;;;;;;;17.14;100.00;100338.94;5587608;31;34544;-71
2022/06/01 06:48:54;;;;;;;20.40;12.15;;;;;;;17.13;100.00;100343.50;5587825;31;34239;-71
2022/06/01 06:51:56;;;;;;;18.48;11.60;;;;;;;17.08;100.00;100347.84;5588074;31;34937;-73
2022/06/01 06:54:59;;;;;;;20.73;11.48;;;;;;;17.03;100.00;100351.16;5587107;31;32771;-72
2022/06/01 06:58:01;;;;;;;19.83;11.57;;;;;;;16.83;100.00;100359.22;5588031;31;34790;-70
2022/06/01 07:01:04;;;;;;;17.65;11.52;;;;;;;16.73;100.00;100363.38;5587847;31;34141;-71
2022/06/01 07:04:07;;;;;;;21.42;10.52;;;;;;;16.69;100.00;100367.50;5587795;31;34218;-70
2022/06/01 07:07:10;;;;;;;18.10;11.23;;;;;;;17.11;100.00;100363.50;5587974;31;34145;-71
2022/06/01 07:10:12;;;;;;;15.18;9.55;;;;;;;17.90;100.00;100373.91;5587195;31;34666;-70
2022/06/01 07:13:15;;;;;;;17.17;10.40;;;;;;;18.27;100.00;100373.03;5587676;31;34621;-71
2022/06/01 07:16:24;;;;;;;15.75;9.35;;;;;;;18.06;100.00;100378.75;5587356;31;34615;-71
2022/06/01 07:19:27;;;;;;;16.17;9.82;;;;;;;18.31;100.00;100384.16;5586616;31;33067;-70
2022/06/01 07:22:30;;;;;;;16.02;8.90;;;;;;;18.45;100.00;100385.72;5587436;31;34324;-70
2022/06/01 07:25:33;;;;;;;15.30;8.57;;;;;;;18.66;100.00;100378.12;5589693;31;35438;-72
2022/06/01 07:28:36;;;;;;;14.13;7.62;;;;;;;18.14;100.00;100383.88;5590166;31;34246;-71
2022/06/01 07:31:40;;;;;;;12.57;7.22;;;;;;;18.02;100.00;100385.59;5590153;31;34502;-71
2022/06/01 07:34:43;;;;;;;11.98;6.65;;;;;;;17.53;100.00;100387.06;5590115;31;34164;-71
2022/06/01 07:44:32;;;;;;;5.03;3.65;;;;;;;20.18;95.67;100384.41;5590768;31;34190;-70
2022/06/01 07:47:35;;;;;;;7.68;3.72;;;;;;;19.95;97.10;100383.28;5589255;31;32934;-74
2022/06/01 07:50:58;;;;;;;4.93;3.60;;;;;;;20.51;89.90;100384.75;5590249;31;34847;-72
2022/06/01 07:54:00;;;;;;;6.03;3.42;;;;;;;20.41;88.25;100386.37;5590115;31;34920;-71
2022/06/01 07:57:04;;;;;;;4.70;3.10;;;;;;;21.23;88.66;100385.34;5590461;31;34637;-73
2022/06/01 08:00:11;;;;;;;5.70;3.30;;;;;;;22.19;80.84;100389.16;5590008;31;35412;-74
2022/06/01 08:03:16;;;;;;;3.80;2.62;;;;;;;22.45;75.65;100396.63;5589256;31;33028;-71
2022/06/01 08:06:19;;;;;;;5.75;3.05;;;;;;;22.96;74.24;100401.81;5590036;31;34215;-71
2022/06/01 08:09:42;;;;;;;3.20;2.35;;;;;;;21.88;75.21;100402.06;5590124;31;34231;-73
2022/06/01 08:16:07;;;;;;;4.12;2.75;;;;;;;23.42;72.73;100407.84;5589727;31;34380;-72
2022/06/01 08:19:10;;;;;;;2.87;2.10;;;;;;;25.10;66.06;100401.12;5589961;31;34168;-74
2022/06/01 08:22:14;;;;;;;3.60;2.67;;;;;;;22.53;71.77;100413.28;5589742;31;34218;-73
2022/06/01 08:25:20;;;;;;;3.60;2.60;;;;;;;22.16;76.54;100409.38;5589800;31;34316;-75
2022/06/01 08:28:23;;;;;;;2.83;1.92;;;;;;;22.51;78.08;100409.19;5589620;31;34871;-73
2022/06/01 08:31:27;;;;;;;3.03;2.20;;;;;;;23.12;72.79;100410.97;5589916;31;35444;-74
2022/06/01 08:34:32;;;;;;;6.00;2.55;;;;;;;22.25;73.62;100413.31;5589136;31;32807;-75
2022/06/01 08:37:35;;;;;;;3.75;2.12;;;;;;;22.65;74.42;100420.50;5588555;31;34332;-74
2022/06/01 08:40:46;;;;;;;3.58;2.45;;;;;;;23.71;68.32;100417.47;5589550;31;35000;-75
2022/06/01 08:43:55;;;;;;;3.35;2.35;;;;;;;24.55;64.76;100416.94;5589526;31;34633;-74
2022/06/01 08:47:05;;;;;;;3.97;2.20;;;;;;;24.40;66.16;100414.13;5588446;31;33695;-74
2022/06/01 08:50:16;;;;;;;7.37;2.37;;;;;;;26.10;58.88;100420.81;5588668;31;34174;-72
2022/06/01 08:53:21;;;;;;;2.28;1.80;;;;;;;26.17;58.72;100412.41;5589500;31;34935;-77
2022/06/01 08:56:39;;;;;;;3.65;1.98;;;;;;;25.71;58.41;100415.00;5575685;31;32762;-74
2022/06/01 09:00:06;;;;;;;2.80;2.08;;;;;;;25.92;59.67;100424.03;5589292;31;34943;-72
2022/06/01 09:03:23;;;;;;;3.60;1.90;;;;;;;26.89;55.68;100430.44;5589368;31;35458;-72
2022/06/01 09:06:36;;;;;;;3.12;1.85;;;;;;;27.75;51.48;100428.31;5588960;31;34156;-74
2022/06/01 09:10:07;;;;;;;1.73;1.40;;;;;;;28.59;51.14;100415.53;5589194;31;34458;-75
2022/06/01 09:13:23;;;;;;;2.62;1.55;;;;;;;28.29;50.58;100425.56;5588440;31;34172;-74
2022/06/01 09:16:37;;;;;;;3.95;1.80;;;;;;;29.56;45.98;100422.50;5589098;31;34976;-75
2022/06/01 09:23:08;;;;;;;2.45;1.37;;;;;;;30.71;43.39;100428.50;5588958;31;34336;-75
2022/06/01 09:26:24;;;;;;;1.65;1.30;;;;;;;28.26;50.73;100428.06;5588866;31;34389;-76
2022/06/01 09:29:32;;;;;;;1.75;1.35;;;;;;;27.29;51.14;100432.28;5588268;31;34595;-75
2022/06/01 09:32:40;;;;;;;3.60;1.70;;;;;;;26.72;54.67;100431.50;5588703;31;34978;-76
2022/06/01 09:35:58;;;;;;;;;;;;;;;28.26;50.20;100439.78;5589198;31;34289;-73
2022/06/01 09:39:03;;;;;;;4.30;1.65;;;;;;;27.96;49.55;100442.66;5589158;31;34421;-75
2022/06/01 09:42:35;;;;;;;2.95;1.85;;;;;;;28.80;49.34;100430.66;5591141;31;34264;-75
2022/06/01 09:45:38;;;;;;;1.67;1.20;;;;;;;30.04;45.14;100439.66;5590447;31;34873;-73
2022/06/01 09:48:46;;;;;;;2.15;1.45;;;;;;;30.65;40.48;100436.81;5591777;31;34881;-73
2022/06/01 09:51:54;;;;;;;4.65;1.60;;;;;;;32.11;39.10;100437.03;5591173;31;34630;-72
2022/06/01 09:55:06;;;;;;;;;;;;;;;30.15;41.15;100430.19;5589127;31;33104;-75
2022/06/01 09:58:10;;;;;;;1.70;1.23;;;;;;;30.00;44.27;100435.06;5588736;31;35200;-75
2022/06/01 10:08:29;;;;;;;1.48;1.30;;;;;;;30.42;40.75;100425.94;5588511;31;34822;-71
2022/06/01 10:11:39;;;;;;;4.25;1.83;;;;;;;29.84;41.02;100431.69;5588642;31;34238;-70
2022/06/01 10:14:52;;;;;;;1.50;1.10;;;;;;;31.42;36.96;100428.03;5588531;31;34248;-75
2022/06/01 10:18:05;;;;;;;1.92;1.30;;;;;;;31.99;36.13;100434.81;5588750;31;34309;-74
2022/06/01 10:21:11;;;;;;;1.40;1.20;;;;;;;31.83;37.53;100439.81;5588628;31;34630;-74
2022/06/01 10:24:27;;;;;;;1.95;1.20;;;;;;;31.71;37.72;100430.50;5588493;31;34241;-72
2022/06/01 10:27:35;;;;;;;2.72;1.12;;;;;;;33.00;33.49;100429.63;5588525;31;34315;-73
2022/06/01 10:30:49;;;;;;;2.08;1.10;;;;;;;31.33;36.17;100433.41;5588302;31;34689;-74
2022/06/01 10:34:02;;;;;;;1.65;1.10;;;;;;;32.10;34.71;100433.47;5588175;31;34212;-73
2022/06/01 10:37:25;;;;;;;2.25;1.20;;;;;;;31.17;36.02;100423.87;5588529;31;34241;-75
2022/06/01 10:41:06;;;;;;;1.87;1.10;;;;;;;34.24;31.45;100426.63;5588169;31;34239;-74
2022/06/01 10:44:21;;;;;;;2.42;1.10;;;;;;;36.15;29.23;100434.72;5559002;31;34876;-72
2022/06/01 10:47:42;;;;;;;1.35;1.10;;;;;;;33.11;33.45;100435.66;5588021;31;34623;-71
2022/06/01 10:50:53;;;;;;;1.05;0.85;;;;;;;31.52;33.56;100438.78;5587992;31;34950;-73
2022/06/01 10:54:21;;;;;;;1.00;0.88;;;;;;;33.55;30.50;100437.50;5587974;31;34767;-73
2022/06/01 10:57:25;;;;;;;2.33;1.40;;;;;;;34.03;30.46;100429.19;5587402;31;34174;-72
2022/06/01 11:00:44;;;;;;;2.25;1.10;;;;;;;35.55;27.33;100432.31;5589610;31;34242;-73
2022/06/01 11:03:57;;;;;;;1.42;0.90;;;;;;;36.13;27.54;100432.28;5590273;31;34319;-72
2022/06/01 11:07:28;;;;;;;1.75;0.90;;;;;;;35.95;26.54;100432.72;5590443;31;34536;-73
2022/06/01 11:10:33;;;;;;;4.65;1.00;;;;;;;35.26;29.78;100433.91;5590630;31;34147;-72
2022/06/01 11:14:05;;;;;;;1.25;1.02;;;;;;;34.48;29.12;100436.00;5592723;31;34318;-69
2022/06/01 11:17:23;;;;;;;1.95;0.88;;;;;;;34.20;27.83;100426.47;5590311;31;34166;-75
2022/06/01 11:20:51;;;;;;;1.33;0.82;;;;;;;34.85;28.84;100430.97;5589931;31;34307;-74
2022/06/01 11:24:25;;;;;;;1.75;0.93;;;;;;;34.21;28.11;100428.09;5590174;31;34338;-69
2022/06/01 11:27:48;;;;;;;;;;;;;;;34.51;27.83;100431.00;5589468;31;34181;-71
2022/06/01 11:31:10;;;;;;;2.72;0.90;;;;;;;33.06;28.13;100422.06;5588880;31;33329;-72
2022/06/01 11:34:19;;;;;;;1.30;0.70;;;;;;;34.15;26.55;100423.84;5589196;31;32788;-70
2022/06/01 11:37:34;;;;;;;1.62;0.65;;;;;;;34.00;26.94;100419.63;5589931;31;34183;-71
2022/06/01 11:40:52;;;;;;;1.80;1.08;;;;;;;33.71;28.68;100419.41;5590343;31;34641;-71
2022/06/01 11:44:03;;;;;;;3.47;0.90;;;;;;;34.56;27.35;100420.59;5590283;31;34192;-73
2022/06/01 11:47:19;;;;;;;1.67;0.90;;;;;;;35.25;25.99;100412.16;5590104;31;34431;-72
2022/06/01 11:50:32;;;;;;;1.00;0.80;;;;;;;37.61;23.42;100410.22;5590085;31;34190;-72
2022/06/01 11:53:53;;;;;;;2.25;0.95;;;;;;;35.87;25.05;100409.56;5590441;31;34154;-71
2022/06/01 11:57:16;;;;;;;1.75;0.80;;;;;;;35.10;26.30;100407.19;5590351;31;34568;-70
2022/06/01 12:00:31;;;;;;;1.30;0.80;;;;;;;35.36;26.22;100410.66;5590090;31;34503;-72
2022/06/01 12:03:53;;;;;;;3.25;0.80;;;;;;;36.65;23.66;100408.94;5589936;31;34791;-69
2022/06/01 12:07:13;;;;;;;0.70;0.70;;;;;;;37.61;22.09;100416.56;5589744;31;35429;-69
2022/06/01 12:10:28;;;;;;;1.90;0.90;;;;;;;36.27;23.79;100418.19;5589172;31;34265;-72
2022/06/01 12:13:49;;;;;;;1.95;0.90;;;;;;;36.43;24.03;100413.66;5589167;31;34989;-69
2022/06/01 12:17:17;;;;;;;0.90;0.80;;;;;;;35.47;24.39;100406.37;5589306;31;34169;-71
2022/06/01 12:20:40;;;;;;;1.17;0.73;;;;;;;36.34;23.64;100415.69;5588895;31;33106;-70
2022/06/01 12:28:39;;;;;;;1.45;0.77;;;;;;;34.90;24.30;100405.97;5590367;31;34244;-71
2022/06/01 12:31:57;;;;;;;1.10;0.90;;;;;;;36.76;23.90;100410.09;5589960;31;34941;-71
2022/06/01 12:35:09;;;;;;;3.90;0.98;;;;;;;38.27;21.91;100410.63;5589236;31;34188;-70
2022/06/01 12:38:33;;;;;;;1.83;0.85;;;;;;;35.95;24.39;100402.34;5589875;31;34143;-70
2022/06/01 12:41:40;;;;;;;2.28;0.80;;;;;;;35.19;24.82;100399.72;5589916;31;34135;-70
2022/06/01 12:44:45;;;;;;;1.55;0.80;;;;;;;34.75;25.50;100398.22;5589749;31;34949;-69
2022/06/01 12:48:07;;;;;;;1.30;0.90;;;;;;;35.60;23.65;100402.56;5589785;31;34878;-71
2022/06/01 12:51:10;;;;;;;1.58;0.82;;;;;;;34.08;24.82;100395.19;5589558;31;34306;-72
2022/06/01 12:54:29;;;;;;;4.25;1.15;;;;;;;35.07;25.16;100399.56;5589522;31;34437;-74
2022/06/01 12:57:41;;;;;;;2.78;0.90;;;;;;;36.98;23.48;100396.69;5589561;31;34315;-70
2022/06/01 13:00:51;;;;;;;2.25;0.82;;;;;;;35.19;24.68;100389.50;5589679;31;34174;-70
2022/06/01 13:03:58;;;;;;;1.15;0.90;;;;;;;36.79;23.33;100388.12;5589556;31;34855;-72
2022/06/01 13:07:01;;;;;;;2.10;0.70;;;;;;;37.51;21.82;100375.47;5589542;31;34209;-70
2022/06/01 13:10:09;;;;;;;1.00;0.80;;;;;;;34.87;24.33;100382.59;5588759;31;34359;-70
2022/06/01 13:13:20;;;;;;;2.20;0.93;;;;;;;33.93;25.58;100374.44;5589296;31;34971;-70
2022/06/01 13:16:35;;;;;;;4.43;1.30;;;;;;;37.20;22.07;100383.56;5589106;31;34393;-70
2022/06/01 13:19:39;;;;;;;1.37;0.70;;;;;;;38.02;20.73;100382.22;5589446;31;34899;-69
2022/06/01 13:22:50;;;;;;;1.85;0.80;;;;;;;37.58;21.09;100383.22;5588878;31;34290;-71
2022/06/01 13:25:54;;;;;;;0.93;0.65;;;;;;;33.33;26.05;100372.37;5589441;31;34295;-71
2022/06/01 13:29:15;;;;;;;4.30;0.70;;;;;;;33.71;23.60;100375.38;5589438;31;34858;-72
2022/06/01 13:32:19;;;;;;;3.42;1.35;;;;;;;35.64;23.03;100377.84;5588169;31;34194;-70
2022/06/01 13:35:32;;;;;;;1.73;0.73;;;;;;;38.36;19.99;100372.50;5589094;31;34163;-72
2022/06/01 13:38:35;;;;;;;2.08;0.80;;;;;;;38.06;20.79;100377.56;5589513;31;34336;-71
2022/06/01 13:41:51;;;;;;;1.67;0.70;;;;;;;37.33;21.16;100372.13;5588861;31;35444;-72
2022/06/01 13:45:04;;;;;;;3.00;0.73;;;;;;;39.84;18.93;100366.31;5588808;31;34565;-70
2022/06/01 13:48:18;;;;;;;1.17;0.60;;;;;;;40.91;18.09;100369.97;5588350;31;33084;-71
2022/06/01 13:51:54;;;;;;;0.77;0.60;;;;;;;37.79;19.13;100351.44;5588539;31;34335;-70
2022/06/01 13:55:30;;;;;;;3.10;0.70;;;;;;;39.54;17.17;100354.91;5588736;31;34334;-71
2022/06/01 13:58:51;;;;;;;1.40;1.00;;;;;;;37.37;19.73;100350.13;5554738;31;35404;-71
2022/06/01 14:02:01;;;;;;;1.77;0.60;;;;;;;38.08;19.25;100353.09;5586822;31;35268;-71
2022/06/01 14:05:21;;;;;;;1.77;0.70;;;;;;;38.03;20.51;100336.75;5588138;31;34175;-71
2022/06/01 14:08:29;;;;;;;0.82;0.60;;;;;;;41.39;17.25;100340.56;5587737;31;34301;-69
2022/06/01 14:11:32;;;;;;;1.20;0.70;;;;;;;37.93;18.87;100336.41;5587169;31;33114;-72
2022/06/01 14:14:38;;;;;;;0.90;0.70;;;;;;;38.37;18.26;100335.31;5587873;31;34828;-71
2022/06/01 14:17:44;;;;;;;1.25;0.55;;;;;;;38.18;19.14;100330.44;5587997;31;34902;-72
2022/06/01 14:20:48;;;;;;;0.95;0.50;;;;;;;36.36;20.85;100321.44;5588280;31;34540;-71
2022/06/01 14:23:51;;;;;;;1.30;0.73;;;;;;;32.28;26.63;100319.13;5587876;31;35549;-69
2022/06/01 14:30:15;;;;;;;2.05;0.65;;;;;;;30.75;28.20;100323.53;5587976;31;34258;-71
2022/06/01 14:33:18;;;;;;;1.52;0.60;;;;;;;31.31;27.15;100322.44;5587072;31;32615;-72
2022/06/01 14:36:24;;;;;;;2.35;0.70;;;;;;;32.33;24.31;100319.81;5589684;31;34661;-72
2022/06/01 14:39:27;;;;;;;1.77;0.80;;;;;;;35.23;20.84;100326.19;5590043;31;34240;-71
2022/06/01 14:42:33;;;;;;;2.00;0.80;;;;;;;38.59;18.28;100322.81;5589789;31;34610;-70
2022/06/01 14:45:35;;;;;;;0.68;0.57;;;;;;;39.40;17.73;100321.28;5589517;31;34620;-70
2022/06/01 14:48:38;;;;;;;4.55;0.60;;;;;;;39.00;16.72;100315.97;5587926;31;32903;-70
2022/06/01 14:51:43;;;;;;;0.90;0.50;;;;;;;39.57;14.71;100320.88;5589292;31;34285;-71
2022/06/01 14:54:45;;;;;;;1.35;0.68;;;;;;;37.54;16.65;100318.63;5589724;31;34357;-70
2022/06/01 14:57:49;;;;;;;3.37;0.70;;;;;;;39.94;16.85;100318.50;5588940;31;34931;-72
2022/06/01 15:00:52;;;;;;;3.70;1.98;;;;;;;41.23;15.16;100315.66;5588094;31;34178;-70
2022/06/01 15:03:55;;;;;;;3.50;0.65;;;;;;;36.56;18.74;100299.22;5589037;31;34593;-72